![]() |
EMODnet Physics ERDDAP
Easier access to scientific data |
log in|
Brought to you by EMODnet Physics |
| Dataset Title: | NDBC - Collection of dew point temperature (DEWT) TimeSeries - IN SITU MultiPointTimeSeriesObservation
|
| Institution: | NDBC (Dataset ID: TS_DEWT_NDBC) |
| Information: | Summary
| License
| FGDC
| ISO 19115
| Metadata
| Background
| Subset
| Data Access Form
| Make a graph
|
| Name | Last modified | Size | Description | |
|---|---|---|---|---|
| Parent Directory | - | - | ||
| 46085_TS_DEWT_012008.nc | 01-Jan-2025 09:09 | 429355 | ||
| 46085_TS_DEWT_012009.nc | 01-Jan-2025 09:11 | 448894 | ||
| 46085_TS_DEWT_012010.nc | 01-Jan-2025 09:13 | 450276 | ||
| 46085_TS_DEWT_012011.nc | 01-Jan-2025 09:15 | 449442 | ||
| 46085_TS_DEWT_012015.nc | 17-Jan-2026 16:18 | 442405 | ||
| 46085_TS_DEWT_012016.nc | 17-Jan-2026 16:24 | 449097 | ||
| 46085_TS_DEWT_012020.nc | 17-Jan-2026 16:36 | 448965 | ||
| 46085_TS_DEWT_012026.nc | 02-Feb-2026 18:37 | 450095 | ||
| 46085_TS_DEWT_022008.nc | 01-Jan-2025 09:09 | 449270 | ||
| 46085_TS_DEWT_022009.nc | 01-Jan-2025 09:11 | 451056 | ||
| 46085_TS_DEWT_022010.nc | 01-Jan-2025 09:13 | 449435 | ||
| 46085_TS_DEWT_022015.nc | 17-Jan-2026 16:18 | 450364 | ||
| 46085_TS_DEWT_022016.nc | 17-Jan-2026 16:24 | 450899 | ||
| 46085_TS_DEWT_022020.nc | 17-Jan-2026 16:37 | 449034 | ||
| 46085_TS_DEWT_022026.nc | 01-Mar-2026 09:05 | 429563 | ||
| 46085_TS_DEWT_032008.nc | 01-Jan-2025 09:09 | 429562 | ||
| 46085_TS_DEWT_032009.nc | 01-Jan-2025 09:11 | 448609 | ||
| 46085_TS_DEWT_032010.nc | 01-Jan-2025 09:13 | 449504 | ||
| 46085_TS_DEWT_032015.nc | 17-Jan-2026 16:18 | 448866 | ||
| 46085_TS_DEWT_032016.nc | 17-Jan-2026 16:24 | 449466 | ||
| 46085_TS_DEWT_032020.nc | 17-Jan-2026 16:37 | 448374 | ||
| 46085_TS_DEWT_032026.nc | 26-Mar-2026 10:43 | 448966 | ||
| 46085_TS_DEWT_042008.nc | 01-Jan-2025 09:09 | 448980 | ||
| 46085_TS_DEWT_042010.nc | 01-Jan-2025 09:13 | 448768 | ||
| 46085_TS_DEWT_042015.nc | 17-Jan-2026 16:19 | 449945 | ||
| 46085_TS_DEWT_042020.nc | 17-Jan-2026 16:38 | 450097 | ||
| 46085_TS_DEWT_052007.nc | 01-Jan-2025 09:08 | 450593 | ||
| 46085_TS_DEWT_052008.nc | 01-Jan-2025 09:10 | 429658 | ||
| 46085_TS_DEWT_052010.nc | 01-Jan-2025 09:13 | 429680 | ||
| 46085_TS_DEWT_052012.nc | 17-Jan-2026 16:15 | 429689 | ||
| 46085_TS_DEWT_052015.nc | 17-Jan-2026 16:19 | 429661 | ||
| 46085_TS_DEWT_052022.nc | 17-Jan-2026 16:44 | 429679 | ||
| 46085_TS_DEWT_062007.nc | 01-Jan-2025 09:08 | 429685 | ||
| 46085_TS_DEWT_062008.nc | 01-Jan-2025 09:10 | 426688 | ||
| 46085_TS_DEWT_062009.nc | 01-Jan-2025 09:12 | 429680 | ||
| 46085_TS_DEWT_062010.nc | 01-Jan-2025 09:14 | 429685 | ||
| 46085_TS_DEWT_062011.nc | 17-Jan-2026 16:12 | 429677 | ||
| 46085_TS_DEWT_062012.nc | 17-Jan-2026 16:15 | 429686 | ||
| 46085_TS_DEWT_062015.nc | 17-Jan-2026 16:19 | 450601 | ||
| 46085_TS_DEWT_062021.nc | 17-Jan-2026 16:39 | 449327 | ||
| 46085_TS_DEWT_062022.nc | 17-Jan-2026 16:45 | 450661 | ||
| 46085_TS_DEWT_062025.nc | 17-Jan-2026 16:48 | 450493 | ||
| 46085_TS_DEWT_072007.nc | 01-Jan-2025 09:08 | 449791 | ||
| 46085_TS_DEWT_072008.nc | 01-Jan-2025 09:10 | 450770 | ||
| 46085_TS_DEWT_072009.nc | 01-Jan-2025 09:12 | 451238 | ||
| 46085_TS_DEWT_072010.nc | 01-Jan-2025 09:14 | 451503 | ||
| 46085_TS_DEWT_072011.nc | 17-Jan-2026 16:13 | 451006 | ||
| 46085_TS_DEWT_072014.nc | 17-Jan-2026 16:15 | 451127 | ||
| 46085_TS_DEWT_072015.nc | 17-Jan-2026 16:20 | 450423 | ||
| 46085_TS_DEWT_072022.nc | 17-Jan-2026 16:45 | 450029 | ||
| 46085_TS_DEWT_072025.nc | 17-Jan-2026 16:49 | 451674 | ||
| 46085_TS_DEWT_082007.nc | 01-Jan-2025 09:08 | 429905 | ||
| 46085_TS_DEWT_082008.nc | 01-Jan-2025 09:10 | 445676 | ||
| 46085_TS_DEWT_082009.nc | 01-Jan-2025 09:12 | 449513 | ||
| 46085_TS_DEWT_082010.nc | 01-Jan-2025 09:14 | 451650 | ||
| 46085_TS_DEWT_082011.nc | 17-Jan-2026 16:13 | 449511 | ||
| 46085_TS_DEWT_082014.nc | 17-Jan-2026 16:16 | 449935 | ||
| 46085_TS_DEWT_082015.nc | 17-Jan-2026 16:20 | 451163 | ||
| 46085_TS_DEWT_082019.nc | 17-Jan-2026 16:33 | 450331 | ||
| 46085_TS_DEWT_082022.nc | 17-Jan-2026 16:46 | 448912 | ||
| 46085_TS_DEWT_082025.nc | 17-Jan-2026 16:49 | 450751 | ||
| 46085_TS_DEWT_092007.nc | 01-Jan-2025 09:08 | 449813 | ||
| 46085_TS_DEWT_092008.nc | 01-Jan-2025 09:10 | 449944 | ||
| 46085_TS_DEWT_092009.nc | 01-Jan-2025 09:12 | 451862 | ||
| 46085_TS_DEWT_092010.nc | 01-Jan-2025 09:14 | 451374 | ||
| 46085_TS_DEWT_092011.nc | 17-Jan-2026 16:14 | 420293 | ||
| 46085_TS_DEWT_092014.nc | 17-Jan-2026 16:16 | 447951 | ||
| 46085_TS_DEWT_092015.nc | 17-Jan-2026 16:21 | 450000 | ||
| 46085_TS_DEWT_092019.nc | 17-Jan-2026 16:34 | 450044 | ||
| 46085_TS_DEWT_092022.nc | 17-Jan-2026 16:47 | 449240 | ||
| 46085_TS_DEWT_092025.nc | 17-Jan-2026 16:50 | 449794 | ||
| 46085_TS_DEWT_102007.nc | 01-Jan-2025 09:09 | 450478 | ||
| 46085_TS_DEWT_102008.nc | 01-Jan-2025 09:10 | 444252 | ||
| 46085_TS_DEWT_102009.nc | 01-Jan-2025 09:12 | 448905 | ||
| 46085_TS_DEWT_102010.nc | 01-Jan-2025 09:14 | 450770 | ||
| 46085_TS_DEWT_102011.nc | 17-Jan-2026 16:14 | 450491 | ||
| 46085_TS_DEWT_102014.nc | 17-Jan-2026 16:17 | 433987 | ||
| 46085_TS_DEWT_102015.nc | 17-Jan-2026 16:22 | 448847 | ||
| 46085_TS_DEWT_102019.nc | 17-Jan-2026 16:34 | 450206 | ||
| 46085_TS_DEWT_102022.nc | 17-Jan-2026 16:47 | 449764 | ||
| 46085_TS_DEWT_102025.nc | 17-Jan-2026 16:50 | 449056 | ||
| 46085_TS_DEWT_112007.nc | 01-Jan-2025 09:09 | 447118 | ||
| 46085_TS_DEWT_112008.nc | 01-Jan-2025 09:11 | 439586 | ||
| 46085_TS_DEWT_112009.nc | 01-Jan-2025 09:12 | 431836 | ||
| 46085_TS_DEWT_112010.nc | 01-Jan-2025 09:14 | 1836995 | ||
| 46085_TS_DEWT_112011.nc | 17-Jan-2026 16:14 | 1839195 | ||
| 46085_TS_DEWT_112014.nc | 17-Jan-2026 16:17 | 1280478 | ||
| 46085_TS_DEWT_112015.nc | 17-Jan-2026 16:23 | 4315754 | ||
| 46085_TS_DEWT_112019.nc | 17-Jan-2026 16:35 | 3403770 | ||
| 46085_TS_DEWT_112022.nc | 17-Jan-2026 16:48 | 1658192 | ||
| 46085_TS_DEWT_112025.nc | 17-Jan-2026 16:51 | 1657777 | ||
| 46085_TS_DEWT_122007.nc | 01-Jan-2025 09:09 | 424503 | ||
| 46085_TS_DEWT_122008.nc | 01-Jan-2025 09:11 | 2791330 | ||
| 46085_TS_DEWT_122009.nc | 01-Jan-2025 09:13 | 4882532 | ||
| 46085_TS_DEWT_122010.nc | 01-Jan-2025 09:14 | 1833707 | ||
| 46085_TS_DEWT_122011.nc | 17-Jan-2026 16:15 | 1806227 | ||
| 46085_TS_DEWT_122014.nc | 17-Jan-2026 16:17 | 4012090 | ||
| 46085_TS_DEWT_122015.nc | 17-Jan-2026 16:23 | 3290139 | ||
| 46085_TS_DEWT_122019.nc | 17-Jan-2026 16:35 | 1680345 | ||
| 46085_TS_DEWT_122025.nc | 17-Jan-2026 16:51 | 1676352 | ||